Time;durP1;ratioP1;P1;durP2;ratioP2;P2;SDS_P1;SDS_P2;PMS_P1;PMS_P2;Temp;Humidity;BMP_temperature;BMP_pressure;BME280_temperature;BME280_humidity;BME280_pressure;Samples;Min_cycle;Max_cycle;Signal;HPM_P1;HPM_P2
2021/12/24 00:00:46;;;;;;;9.50;7.70;;;8.00;78.80;;;6.70;79.69;97116.41;5047412;28;20484;-71
2021/12/24 00:03:14;;;;;;;9.60;7.70;;;8.00;78.80;;;6.72;79.41;97113.53;5047691;28;20685;-69
2021/12/24 00:05:41;;;;;;;9.30;6.53;;;8.00;78.80;;;6.89;78.86;97113.84;5044180;28;20530;-73
2021/12/24 00:08:09;;;;;;;7.80;7.00;;;8.20;78.70;;;6.82;79.02;97129.19;5046802;28;20569;-67
2021/12/24 00:10:37;;;;;;;8.63;7.37;;;8.10;78.60;;;6.89;78.61;97109.31;5043966;28;21011;-69
2021/12/24 00:13:08;;;;;;;11.37;7.93;;;8.20;78.60;;;6.83;79.27;97118.25;5048364;28;20547;-70
2021/12/24 00:18:33;;;;;;;9.23;7.40;;;8.20;78.80;;;7.02;78.79;97091.50;5043411;28;20462;-69
2021/12/24 00:37:48;;;;;;;9.13;7.93;;;8.30;79.10;;;7.00;79.31;97064.84;4967708;28;20939;-69
2021/12/24 00:40:19;;;;;;;13.53;8.20;;;8.30;79.10;;;6.83;79.96;97050.28;5028242;28;20837;-68
2021/12/24 00:42:50;;;;;;;8.80;7.60;;;8.20;79.30;;;7.01;79.78;97055.72;5054402;28;20454;-68
2021/12/24 00:45:21;;;;;;;8.73;7.13;;;8.30;79.40;;;6.99;80.23;97065.88;5026386;28;20769;-67
2021/12/24 00:47:50;;;;;;;8.60;7.03;;;8.30;79.40;;;7.08;80.04;97053.00;5046293;28;20562;-68
2021/12/24 00:50:21;;;;;;;9.20;7.23;;;8.30;79.50;;;6.71;80.19;97005.31;5045195;28;20921;-67
2021/12/24 00:52:52;;;;;;;7.40;6.70;;;8.30;79.50;;;6.55;80.43;96995.91;5028150;28;20872;-71
2021/12/24 00:55:22;;;;;;;8.23;6.87;;;8.30;79.70;;;6.97;80.63;97054.53;5046390;28;20501;-69
2021/12/24 00:57:52;;;;;;;10.33;7.53;;;8.30;79.80;;;7.04;80.19;97047.25;5028232;28;20453;-69
2021/12/24 01:00:23;;;;;;;8.40;7.50;;;8.30;79.70;;;6.96;81.04;97050.19;5025079;28;21016;-69
2021/12/24 01:02:55;;;;;;;8.33;6.97;;;8.30;79.90;;;6.99;80.72;97055.13;5046368;28;20839;-73
2021/12/24 01:05:26;;;;;;;8.80;7.10;;;8.30;79.90;;;6.94;81.07;97046.91;5043476;28;20516;-74
2021/12/24 01:07:53;;;;;;;8.00;5.83;;;8.30;79.90;;;7.09;80.38;97046.59;5047382;28;20549;-71
2021/12/24 01:10:23;;;;;;;9.03;6.70;;;8.40;79.90;;;7.14;80.44;97062.06;5043497;28;20557;-69
2021/12/24 01:12:50;;;;;;;8.90;5.97;;;8.40;79.90;;;7.06;80.47;97047.03;5046908;28;20478;-68
2021/12/24 01:15:18;;;;;;;8.57;6.93;;;8.40;79.90;;;7.03;80.73;97059.03;5043549;28;20561;-71
2021/12/24 01:17:52;;;;;;;7.63;6.30;;;8.40;79.90;;;7.06;81.04;97050.56;5029086;28;20450;-70
2021/12/24 01:20:28;;;;;;;6.97;6.07;;;8.30;80.00;;;7.18;80.19;97057.91;5044182;28;20502;-72
2021/12/24 01:23:28;;;;;;;7.37;6.60;;;8.40;80.10;;;7.09;81.00;97054.66;5046591;28;20449;-69
2021/12/24 01:25:58;;;;;;;6.90;6.20;;;8.40;80.20;;;6.96;81.65;97050.19;5045135;28;20457;-71
2021/12/24 01:28:46;;;;;;;6.30;5.70;;;8.30;80.70;;;7.15;80.84;97053.81;5045627;28;20905;-71
2021/12/24 01:39:41;;;;;;;12.60;6.50;;;8.40;80.70;;;7.07;81.73;97056.75;5047981;28;20979;-68
2021/12/24 01:44:55;;;;;;;6.97;6.13;;;8.40;80.90;;;6.94;82.54;97044.22;5048877;28;20461;-72
2021/12/24 01:47:22;;;;;;;8.47;6.90;;;8.30;81.10;;;6.98;82.41;97045.44;5032038;28;20454;-70
2021/12/24 01:49:49;;;;;;;9.73;6.73;;;8.30;81.40;;;7.03;82.24;97042.91;5047074;28;20468;-69
2021/12/24 01:52:18;;;;;;;10.23;6.63;;;8.30;81.20;;;6.95;82.48;97033.25;5049272;28;21030;-70
2021/12/24 01:54:47;;;;;;;9.33;6.83;;;8.30;81.30;;;7.00;82.56;97040.66;5028419;28;21278;-71
2021/12/24 01:57:15;;;;;;;7.23;6.27;;;8.30;81.50;;;6.99;82.72;97033.66;5056291;28;20490;-70
2021/12/24 01:59:43;;;;;;;7.43;6.60;;;8.30;81.60;;;7.00;82.27;97035.28;5047902;28;20479;-68
2021/12/24 02:02:10;;;;;;;9.37;7.00;;;8.40;81.60;;;7.02;82.62;97037.78;5039622;28;20537;-69
2021/12/24 02:04:37;;;;;;;9.30;7.00;;;8.40;81.60;;;6.96;82.98;97044.81;5046526;28;20567;-66
2021/12/24 02:07:05;;;;;;;8.00;6.60;;;8.30;81.80;;;6.84;84.04;97042.00;5056204;28;20553;-67
2021/12/24 02:09:36;;;;;;;6.80;5.90;;;8.20;82.30;;;6.93;83.83;97040.69;5034936;28;20558;-74
2021/12/24 02:12:06;;;;;;;9.33;6.90;;;8.20;82.50;;;6.92;84.11;97028.31;5049081;28;20452;-71
2021/12/24 02:14:36;;;;;;;8.70;6.70;;;8.20;82.60;;;6.77;84.45;97014.38;5047738;28;20865;-71
2021/12/24 02:17:29;;;;;;;10.00;6.57;;;8.10;82.90;;;6.77;84.46;97009.84;5047887;28;20540;-71
2021/12/24 02:28:30;;;;;;;7.50;6.53;;;8.10;83.20;;;6.84;84.48;96998.22;5046132;28;20474;-73
2021/12/24 02:30:58;;;;;;;8.47;6.20;;;8.10;83.20;;;6.74;84.50;97007.56;5032361;28;20461;-70
2021/12/24 02:33:25;;;;;;;7.20;6.50;;;8.10;83.20;;;6.73;84.73;96999.72;5048826;28;20458;-69
2021/12/24 02:35:54;;;;;;;7.67;6.40;;;8.10;83.50;;;6.84;84.15;97000.91;5030565;28;20469;-71
2021/12/24 02:38:21;;;;;;;11.97;6.47;;;8.10;83.30;;;6.83;84.58;96997.41;5028789;28;20570;-67
2021/12/24 02:40:48;;;;;;;8.17;5.87;;;8.10;83.30;;;6.84;84.19;96992.84;5033289;28;20872;-67
2021/12/24 02:43:19;;;;;;;7.13;6.43;;;8.10;83.30;;;6.81;83.96;96986.03;5062809;28;21033;-67
2021/12/24 02:45:49;;;;;;;7.30;6.60;;;8.10;83.30;;;6.78;84.30;96979.25;5031557;28;20471;-68
2021/12/24 02:53:59;;;;;;;9.53;6.30;;;8.00;83.40;;;6.79;83.85;96953.22;5040476;28;20500;-71
2021/12/24 02:56:32;;;;;;;10.80;6.07;;;8.10;83.30;;;6.89;83.71;96968.84;5031769;28;20487;-66
2021/12/24 02:59:02;;;;;;;7.50;6.00;;;8.20;83.10;;;6.96;83.31;96966.94;5044990;28;20523;-67
2021/12/24 03:01:34;;;;;;;10.63;5.83;;;8.20;83.10;;;6.99;83.08;96963.81;5063682;28;20988;-70
2021/12/24 03:04:02;;;;;;;6.77;6.10;;;8.30;82.60;;;7.04;82.48;96961.28;5032718;28;20462;-69
2021/12/24 03:06:34;;;;;;;6.60;5.70;;;8.30;82.50;;;6.97;82.65;96960.53;5048697;28;20453;-67
2021/12/24 03:09:05;;;;;;;6.47;5.50;;;8.30;82.10;;;7.13;82.32;96964.56;5048504;28;20462;-69
2021/12/24 03:11:32;;;;;;;6.80;5.50;;;8.40;81.90;;;7.16;81.80;96957.91;5047485;28;20450;-69
2021/12/24 03:13:59;;;;;;;7.13;6.13;;;8.40;81.80;;;7.16;81.88;96957.91;5062609;28;20515;-72
2021/12/24 03:16:26;;;;;;;6.23;5.63;;;8.50;81.70;;;7.20;81.80;96956.41;5051529;28;20549;-69
2021/12/24 03:18:54;;;;;;;9.50;5.70;;;8.50;81.50;;;7.15;81.89;96948.19;5061382;28;20808;-71
2021/12/24 03:21:26;;;;;;;5.43;4.70;;;8.50;81.60;;;7.27;81.11;96943.75;5050005;28;21043;-71
2021/12/24 03:26:41;;;;;;;6.43;5.30;;;8.60;81.00;;;7.34;80.81;96959.81;5047795;28;20454;-78
2021/12/24 03:29:11;;;;;;;8.40;5.33;;;8.60;81.00;;;7.29;81.12;96952.41;5047518;28;20462;-72
2021/12/24 03:31:39;;;;;;;6.20;5.27;;;8.60;80.80;;;7.36;80.85;96955.88;5048374;28;20466;-70
2021/12/24 03:34:08;;;;;;;6.30;5.00;;;8.70;80.90;;;7.43;80.64;96946.94;5047180;28;20613;-71
2021/12/24 03:36:35;;;;;;;5.57;5.07;;;8.70;80.60;;;7.51;79.84;96943.97;5047662;28;20923;-68
2021/12/24 03:39:05;;;;;;;6.33;5.73;;;8.80;80.50;;;7.54;80.31;96946.19;5061016;28;20553;-74
2021/12/24 03:41:33;;;;;;;6.27;5.67;;;8.80;80.50;;;7.41;80.40;96944.44;5069223;28;20552;-71
2021/12/24 03:44:00;;;;;;;7.60;5.53;;;8.80;80.60;;;7.53;79.65;96949.94;5047174;28;20520;-67
2021/12/24 03:46:35;;;;;;;5.87;5.03;;;8.80;80.50;;;7.43;80.47;96936.19;5048655;28;20533;-70
2021/12/24 03:49:06;;;;;;;7.20;5.03;;;8.80;80.50;;;7.46;80.37;96933.03;5025192;28;20465;-69
2021/12/24 03:51:43;;;;;;;5.90;4.87;;;8.80;80.50;;;7.57;80.15;96935.00;5047723;28;20537;-71
2021/12/24 03:56:57;;;;;;;5.63;5.10;;;8.80;80.30;;;7.48;80.14;96934.47;5061534;28;20551;-73
2021/12/24 03:59:24;;;;;;;8.57;5.43;;;8.80;80.50;;;7.54;80.47;96919.31;5044427;28;20508;-68
2021/12/24 04:01:51;;;;;;;7.17;5.40;;;8.80;80.40;;;7.48;80.38;96918.34;5046790;28;20519;-67
2021/12/24 04:04:18;;;;;;;7.00;6.00;;;8.80;80.50;;;7.47;80.59;96926.63;5047621;28;20817;-71
2021/12/24 04:06:47;;;;;;;7.03;4.83;;;8.80;80.70;;;7.46;80.84;96925.81;5044766;28;20462;-68
2021/12/24 04:09:15;;;;;;;7.40;5.63;;;8.80;80.70;;;7.53;80.47;96935.66;5046531;28;20569;-70
2021/12/24 04:11:42;;;;;;;6.50;5.67;;;8.80;80.60;;;7.59;80.64;96938.28;5047687;28;20899;-67
2021/12/24 04:14:09;;;;;;;6.10;5.23;;;8.80;80.70;;;7.62;80.54;96951.28;5059809;28;20749;-68
2021/12/24 04:16:36;;;;;;;5.57;5.00;;;8.90;80.70;;;7.60;80.55;96931.06;5047399;28;20453;-71
2021/12/24 04:19:22;;;;;;;8.50;3.97;;;8.90;80.60;;;7.60;80.70;96931.84;5046029;28;20561;-69
2021/12/24 04:24:56;;;;;;;6.73;6.13;;;8.90;80.50;;;7.60;80.36;96937.22;5045859;28;20946;-70
2021/12/24 04:27:27;;;;;;;13.20;6.17;;;8.90;80.50;;;7.65;80.03;96939.25;5044743;28;20488;-68
2021/12/24 04:30:01;;;;;;;6.10;5.20;;;8.90;80.50;;;7.62;80.09;96931.66;5057957;28;20550;-69
2021/12/24 04:32:39;;;;;;;5.50;5.00;;;9.00;80.70;;;7.64;79.97;96927.66;5045476;28;20457;-71
2021/12/24 04:35:19;;;;;;;7.80;5.17;;;8.90;80.30;;;7.39;80.31;96886.59;5051026;28;20468;-69
2021/12/24 04:51:29;;;;;;;7.87;5.70;;;8.90;80.90;;;7.51;81.32;96906.34;5046013;28;20533;-68
2021/12/24 05:02:37;;;;;;;6.07;5.37;;;8.90;81.00;;;7.58;80.89;96927.75;5008266;28;20476;-68
2021/12/24 05:05:17;;;;;;;7.63;6.47;;;8.80;80.90;;;7.60;80.86;96923.78;5059435;28;20464;-67
2021/12/24 05:08:09;;;;;;;7.63;6.17;;;8.90;80.80;;;7.62;80.54;96929.75;5041751;28;20457;-69
2021/12/24 05:10:38;;;;;;;6.33;5.40;;;8.90;80.90;;;7.60;81.09;96925.69;5061615;28;20450;-70
2021/12/24 05:13:10;;;;;;;6.63;5.00;;;8.90;81.00;;;7.55;81.52;96920.13;5049338;28;20458;-69
2021/12/24 05:15:39;;;;;;;7.63;5.70;;;8.90;81.20;;;7.59;81.35;96924.84;5051347;28;20908;-70
2021/12/24 05:18:16;;;;;;;7.67;6.10;;;8.90;81.30;;;7.59;81.60;96924.84;5050135;28;20473;-69
2021/12/24 05:23:28;;;;;;;6.20;5.33;;;8.80;81.70;;;7.56;81.88;96936.03;5047420;28;20492;-72
2021/12/24 05:25:55;;;;;;;6.40;5.40;;;8.80;81.90;;;7.54;82.51;96929.25;5035118;28;21063;-69
2021/12/24 05:28:24;;;;;;;6.57;5.87;;;8.80;82.00;;;7.56;82.58;96933.34;5049251;28;20500;-73
2021/12/24 05:30:51;;;;;;;7.30;6.03;;;8.80;82.00;;;7.51;82.09;96909.81;5050928;28;20504;-71
2021/12/24 05:33:18;;;;;;;6.10;5.50;;;8.90;82.10;;;7.53;82.59;96936.50;5048106;28;20480;-74
2021/12/24 05:35:46;;;;;;;7.70;5.07;;;8.90;82.20;;;7.52;83.01;96937.53;5063820;28;20450;-71
2021/12/24 05:38:15;;;;;;;6.60;5.90;;;8.80;82.30;;;7.50;83.02;96936.91;5030167;28;20470;-70
2021/12/24 05:40:43;;;;;;;7.40;6.30;;;8.80;82.50;;;7.40;83.08;96937.44;5052562;28;20616;-69
2021/12/24 05:43:11;;;;;;;8.97;6.43;;;8.70;82.40;;;7.38;84.23;96926.09;5049151;28;20469;-70
2021/12/24 05:45:40;;;;;;;6.47;5.87;;;8.70;82.90;;;7.43;83.82;96941.56;5049303;28;20535;-70
2021/12/24 05:48:07;;;;;;;7.33;6.60;;;8.70;83.00;;;7.43;84.23;96941.56;5044544;28;20933;-68
2021/12/24 05:50:34;;;;;;;9.37;6.87;;;8.70;83.50;;;7.43;84.07;96942.38;5051350;28;20464;-69
2021/12/24 05:53:01;;;;;;;7.70;5.73;;;8.70;83.10;;;7.44;84.05;96944.03;5030670;28;21022;-69
2021/12/24 05:55:29;;;;;;;9.40;6.40;;;8.70;83.10;;;7.46;83.89;96938.41;5064354;28;20461;-68
2021/12/24 05:57:56;;;;;;;8.77;6.60;;;8.80;83.10;;;7.50;83.46;96936.91;5062055;28;20493;-70
2021/12/24 06:00:23;;;;;;;7.10;6.33;;;8.80;83.10;;;7.41;84.10;96943.63;5032927;28;20450;-70
2021/12/24 06:02:51;;;;;;;7.37;6.67;;;8.80;83.20;;;7.45;83.85;96953.72;5047843;28;20466;-70
2021/12/24 06:05:18;;;;;;;7.07;6.37;;;8.80;83.40;;;7.46;84.04;96946.47;5032070;28;20844;-67
2021/12/24 06:07:45;;;;;;;7.20;6.50;;;8.70;83.40;;;7.39;84.39;96945.72;5046770;28;20528;-70
2021/12/24 06:10:12;;;;;;;7.70;7.00;;;8.70;83.60;;;7.36;84.97;96957.72;5051614;28;20557;-68
2021/12/24 06:12:40;;;;;;;10.47;7.03;;;8.70;83.80;;;7.39;85.21;96954.59;5061700;28;20462;-75
2021/12/24 06:15:08;;;;;;;6.87;6.17;;;8.60;84.10;;;7.41;84.88;96951.69;5049737;28;20466;-67
2021/12/24 06:17:38;;;;;;;8.27;6.93;;;8.70;83.90;;;7.34;85.23;96941.00;5049241;28;20466;-69
2021/12/24 06:20:10;;;;;;;7.97;6.90;;;8.70;84.00;;;7.35;85.01;96946.19;5063773;28;20771;-71
2021/12/24 06:22:37;;;;;;;10.03;6.73;;;8.60;84.30;;;7.41;85.12;96962.44;5047116;28;20473;-69
2021/12/24 06:25:05;;;;;;;8.30;7.37;;;8.70;84.30;;;7.35;85.25;96951.56;5048230;28;20485;-70
2021/12/24 06:27:33;;;;;;;8.10;7.03;;;8.70;84.50;;;6.84;85.58;96885.44;5045185;28;20929;-72
2021/12/24 06:30:00;;;;;;;7.80;7.00;;;8.60;84.70;;;7.31;85.29;96947.63;5047323;28;20993;-68
2021/12/24 06:32:27;;;;;;;10.03;7.10;;;8.60;84.50;;;7.37;85.51;96946.78;5043517;28;21026;-71
2021/12/24 06:34:54;;;;;;;7.83;7.13;;;8.70;84.70;;;7.36;85.90;96963.09;5064452;28;20945;-72
2021/12/24 06:37:23;;;;;;;8.53;7.60;;;8.60;84.80;;;7.41;85.52;96965.94;5046462;28;20476;-70
2021/12/24 06:39:50;;;;;;;9.30;7.53;;;8.70;84.80;;;7.35;85.73;96966.84;5049091;28;20458;-68
2021/12/24 06:42:17;;;;;;;10.20;8.20;;;8.70;84.80;;;7.33;85.63;96963.56;5049350;28;20667;-72
2021/12/24 06:44:45;;;;;;;8.17;7.37;;;8.60;84.80;;;7.32;85.58;96965.41;5046668;28;20462;-71
2021/12/24 06:47:12;;;;;;;9.17;8.20;;;8.60;84.90;;;7.32;85.89;96976.16;5047720;28;20561;-72
2021/12/24 06:49:39;;;;;;;9.70;8.10;;;8.60;84.90;;;7.22;85.76;96970.47;5062402;28;20473;-72
2021/12/24 06:52:07;;;;;;;10.03;7.90;;;8.60;85.10;;;7.27;85.97;96970.63;5047164;28;20504;-71
2021/12/24 06:54:35;;;;;;;8.97;8.07;;;8.60;85.30;;;7.18;86.47;96971.94;5049825;28;20547;-72
2021/12/24 06:57:02;;;;;;;11.93;9.17;;;8.50;85.50;;;7.27;86.16;96965.25;5031346;28;20470;-72
2021/12/24 06:59:30;;;;;;;9.10;8.20;;;8.60;85.60;;;7.30;86.00;96974.75;5054826;28;20944;-70
2021/12/24 07:01:59;;;;;;;10.33;7.97;;;8.60;85.30;;;7.37;85.38;96976.34;5048176;28;20516;-72
2021/12/24 07:04:27;;;;;;;10.10;7.23;;;8.70;85.00;;;7.39;85.23;96969.91;5063984;28;20458;-73
2021/12/24 07:06:54;;;;;;;11.70;8.60;;;8.70;85.00;;;7.37;85.68;96964.75;5048369;28;20534;-74
2021/12/24 07:09:21;;;;;;;10.10;8.17;;;8.70;84.90;;;7.40;85.65;96968.88;5048789;28;20445;-74
2021/12/24 07:11:49;;;;;;;9.37;8.30;;;8.70;85.00;;;7.42;85.26;96961.41;5049114;28;20462;-72
2021/12/24 07:14:17;;;;;;;10.40;9.30;;;8.70;84.80;;;7.36;85.47;96958.56;5062776;28;20948;-74
2021/12/24 07:16:44;;;;;;;8.83;7.90;;;8.70;85.10;;;7.33;85.72;96967.06;5056127;28;20963;-74
2021/12/24 07:19:11;;;;;;;9.37;8.00;;;8.70;85.10;;;7.37;85.44;96959.38;5063319;28;20548;-72
2021/12/24 07:21:39;;;;;;;10.53;7.50;;;8.70;85.10;;;7.43;85.18;96963.88;5064601;28;20477;-72
2021/12/24 07:24:07;;;;;;;11.37;8.30;;;8.70;84.90;;;7.34;85.75;96960.63;5032467;28;20887;-73
2021/12/24 07:26:34;;;;;;;9.17;8.27;;;8.60;85.00;;;7.43;85.25;96965.72;5046971;28;20470;-78
2021/12/24 07:29:03;;;;;;;10.00;8.20;;;8.70;85.10;;;7.32;85.90;96956.53;5049319;28;20476;-74
2021/12/24 07:31:30;;;;;;;11.40;9.50;;;8.60;85.10;;;7.35;85.54;96954.25;5062015;28;20486;-71
2021/12/24 07:33:57;;;;;;;12.00;8.47;;;8.60;85.10;;;7.33;85.85;96969.72;5060532;28;20825;-73
2021/12/24 07:36:24;;;;;;;11.73;9.30;;;8.70;85.00;;;7.29;85.71;96963.16;5047124;28;20540;-75
2021/12/24 07:38:51;;;;;;;13.20;9.53;;;8.70;85.20;;;7.37;85.98;96976.34;5062602;28;20996;-72
2021/12/24 07:41:19;;;;;;;11.20;9.00;;;8.70;85.20;;;7.49;84.87;96976.44;5048003;28;20478;-77
2021/12/24 07:43:46;;;;;;;10.27;8.60;;;8.80;84.80;;;7.48;85.12;96980.16;5047280;28;20509;-73
2021/12/24 07:46:14;;;;;;;12.00;8.57;;;8.80;85.00;;;7.48;85.26;96984.69;5047235;28;20470;-71
2021/12/24 07:48:48;;;;;;;10.37;9.27;;;8.70;84.50;;;7.43;85.13;96980.00;5048277;28;20515;-74
2021/12/24 07:54:01;;;;;;;10.77;9.00;;;8.70;84.40;;;7.50;84.64;96990.66;5047916;28;20460;-71
2021/12/24 07:56:29;;;;;;;8.63;7.70;;;8.80;84.20;;;7.42;84.74;96980.22;5048048;28;20478;-74
2021/12/24 07:58:56;;;;;;;10.90;8.77;;;8.80;84.20;;;7.42;85.07;96988.28;5046995;28;20469;-72
2021/12/24 08:01:26;;;;;;;10.87;9.03;;;8.70;84.30;;;7.40;84.62;96982.31;5048473;28;21015;-72
2021/12/24 08:03:53;;;;;;;9.10;8.20;;;8.80;84.30;;;7.45;84.46;96987.84;5047292;28;20462;-73
2021/12/24 08:06:21;;;;;;;9.80;8.67;;;8.70;84.10;;;7.40;84.57;96982.31;5047746;28;20466;-74
2021/12/24 08:08:48;;;;;;;9.10;8.17;;;8.70;84.20;;;7.42;84.25;96975.66;5048922;28;20480;-71
2021/12/24 08:11:15;;;;;;;10.20;8.63;;;8.70;84.00;;;7.44;84.32;96975.44;5028642;28;20549;-73
2021/12/24 08:13:43;;;;;;;9.60;7.90;;;8.70;84.00;;;7.37;84.34;96970.97;5048502;28;20540;-74
2021/12/24 08:16:11;;;;;;;10.87;9.33;;;8.70;83.90;;;7.49;84.20;96981.81;5047152;28;20977;-76
2021/12/24 08:18:43;;;;;;;9.60;8.63;;;8.70;84.00;;;7.58;83.53;96986.88;5061529;28;20461;-75
2021/12/24 08:21:10;;;;;;;11.00;8.67;;;8.80;83.70;;;7.45;83.65;96969.03;5044802;28;20494;-73
2021/12/24 08:23:37;;;;;;;11.57;8.33;;;8.80;83.70;;;7.46;83.95;96984.94;5045365;28;20458;-72
2021/12/24 08:26:04;;;;;;;11.10;9.60;;;8.80;83.80;;;7.42;83.54;96974.84;5046292;28;20462;-71
2021/12/24 08:28:31;;;;;;;12.73;9.40;;;8.80;83.80;;;7.48;84.28;96992.75;5030293;28;20489;-74
2021/12/24 08:30:58;;;;;;;12.03;9.10;;;8.80;84.00;;;7.50;84.42;96979.91;5061385;28;20520;-72
2021/12/24 08:33:25;;;;;;;13.00;9.27;;;8.80;84.00;;;7.50;84.29;96986.13;5046023;28;20985;-75
2021/12/24 08:35:53;;;;;;;10.33;9.13;;;8.80;84.00;;;7.44;84.55;96975.44;5029423;28;20461;-71
2021/12/24 08:38:21;;;;;;;11.93;8.20;;;8.70;83.90;;;7.42;84.20;96972.97;5046804;28;20476;-72
2021/12/24 08:40:48;;;;;;;11.70;9.93;;;8.80;83.90;;;7.51;84.08;96976.22;5060617;28;20913;-76
2021/12/24 08:43:15;;;;;;;9.40;8.50;;;8.80;83.80;;;7.50;83.87;96975.38;5048517;28;20481;-73
2021/12/24 08:45:42;;;;;;;14.60;9.77;;;8.80;83.70;;;7.53;83.68;96959.84;5046665;28;20469;-73
2021/12/24 08:48:09;;;;;;;13.30;9.73;;;8.80;83.60;;;7.47;84.22;96957.00;5059929;28;20462;-72
2021/12/24 08:50:37;;;;;;;13.33;10.10;;;8.80;83.70;;;7.47;83.88;96945.44;5045380;28;21122;-75
2021/12/24 08:53:06;;;;;;;11.50;10.23;;;8.80;83.80;;;7.46;84.32;96957.22;5028111;28;20481;-75
2021/12/24 08:55:34;;;;;;;11.23;9.97;;;8.70;83.80;;;7.44;84.28;96980.81;5029576;28;20889;-71
2021/12/24 08:58:03;;;;;;;11.70;9.50;;;8.70;83.80;;;7.44;84.09;96976.28;5065087;28;20445;-72
2021/12/24 09:00:31;;;;;;;16.33;10.87;;;8.70;83.80;;;7.42;84.11;96977.53;5046692;28;20447;-72
2021/12/24 09:02:58;;;;;;;11.57;10.03;;;8.70;83.90;;;7.44;84.38;96953.94;5044981;28;20852;-74
2021/12/24 09:05:26;;;;;;;13.10;10.10;;;8.80;83.80;;;7.54;83.50;96974.94;5046242;28;20554;-72
2021/12/24 09:07:53;;;;;;;11.30;9.57;;;8.80;83.60;;;7.16;83.88;96922.97;5058941;28;20462;-70
2021/12/24 09:10:22;;;;;;;10.23;9.17;;;8.80;83.50;;;7.34;83.85;96963.31;5044705;28;24460;-74
2021/12/24 09:12:49;;;;;;;10.77;9.67;;;8.70;83.50;;;7.46;83.46;96968.81;5044346;28;20458;-72
2021/12/24 09:15:19;;;;;;;14.50;10.17;;;8.80;83.70;;;7.34;84.43;96966.00;5062780;28;20507;-73
2021/12/24 09:17:47;;;;;;;12.00;10.50;;;8.70;83.80;;;7.40;84.81;96975.06;5045556;28;20490;-71
2021/12/24 09:20:21;;;;;;;13.00;10.13;;;8.70;84.30;;;7.29;85.60;96968.53;5048304;28;20493;-70
2021/12/24 09:22:49;;;;;;;14.33;11.57;;;8.60;84.70;;;7.23;86.55;96974.81;5045261;28;20465;-71
2021/12/24 09:25:16;;;;;;;15.40;11.60;;;8.60;85.70;;;7.21;86.95;96968.84;5048466;28;20472;-72
2021/12/24 09:27:45;;;;;;;13.00;11.57;;;8.50;86.30;;;7.00;88.11;96960.09;5060139;28;20481;-71
2021/12/24 09:30:12;;;;;;;19.03;11.87;;;8.40;87.50;;;7.09;88.39;96969.53;5044047;28;21020;-72
2021/12/24 09:32:40;;;;;;;15.30;11.30;;;8.40;88.70;;;6.99;89.46;96958.44;5047322;28;20523;-76
2021/12/24 09:35:08;;;;;;;13.57;12.17;;;8.40;90.00;;;6.77;90.77;96950.78;5047306;28;20486;-71
2021/12/24 09:37:35;;;;;;;14.53;11.77;;;8.30;90.80;;;6.70;92.16;96963.41;5043464;28;20552;-76
2021/12/24 09:40:09;;;;;;;15.23;12.13;;;8.10;91.90;;;6.75;91.41;96950.16;5065684;28;20507;-72
2021/12/24 09:42:36;;;;;;;15.13;11.83;;;8.20;91.90;;;6.87;91.46;96957.50;5047224;28;20509;-74
2021/12/24 09:45:07;;;;;;;14.93;13.33;;;8.20;91.90;;;6.78;91.51;96952.41;5050125;28;20508;-72
2021/12/24 09:47:35;;;;;;;17.33;13.10;;;8.20;91.90;;;6.75;92.08;96958.22;5045416;28;20462;-75
2021/12/24 09:50:02;;;;;;;14.93;12.03;;;8.10;92.40;;;6.75;91.88;96962.75;5043581;28;20454;-72
2021/12/24 09:52:30;;;;;;;15.77;13.70;;;8.10;92.20;;;6.81;91.70;96956.50;5046168;28;20458;-75
2021/12/24 09:54:57;;;;;;;14.67;12.63;;;8.10;92.20;;;6.80;92.07;96958.38;5047983;28;20972;-74
2021/12/24 09:57:24;;;;;;;15.50;12.80;;;8.10;92.30;;;6.83;92.34;96954.44;5042898;28;20490;-77
2021/12/24 09:59:54;;;;;;;15.80;14.10;;;8.10;92.70;;;6.80;92.19;96955.69;5049181;28;20469;-74
2021/12/24 10:02:28;;;;;;;17.63;14.40;;;8.10;92.70;;;6.68;92.04;96935.94;5033484;28;20882;-73
2021/12/24 10:04:55;;;;;;;15.90;13.10;;;8.10;92.70;;;6.82;92.17;96962.72;5051297;28;20462;-74
2021/12/24 10:07:25;;;;;;;23.83;13.70;;;8.10;92.70;;;6.71;93.04;96951.63;5062508;28;20574;-74
2021/12/24 10:09:52;;;;;;;17.03;12.90;;;8.10;92.90;;;6.69;92.21;96953.69;5047623;28;20469;-74
2021/12/24 10:12:25;;;;;;;16.33;13.43;;;8.10;92.60;;;6.82;92.01;96968.09;5046770;28;20452;-75
2021/12/24 10:14:57;;;;;;;15.60;12.60;;;8.10;92.60;;;6.60;92.67;96945.09;5039036;28;20863;-71
2021/12/24 10:17:30;;;;;;;18.87;14.80;;;8.00;92.70;;;6.70;93.09;96962.59;5048699;28;20454;-77
2021/12/24 10:20:00;;;;;;;15.70;14.00;;;8.00;93.10;;;6.73;92.35;96962.97;5049466;28;20496;-77
2021/12/24 10:22:27;;;;;;;16.90;13.57;;;8.10;93.00;;;6.72;92.55;96952.47;5047704;28;20941;-73
2021/12/24 10:25:01;;;;;;;20.97;13.90;;;8.10;92.80;;;6.71;93.06;96956.19;5049563;28;20469;-72
2021/12/24 10:27:30;;;;;;;17.97;14.27;;;8.00;93.30;;;6.68;93.00;96941.31;5049409;28;20457;-74
2021/12/24 10:29:58;;;;;;;16.50;14.10;;;8.10;93.10;;;6.70;93.26;96949.97;5030581;28;20458;-73
2021/12/24 10:32:27;;;;;;;19.60;15.40;;;8.00;93.30;;;5.59;93.32;96776.69;5049801;28;20580;-72
2021/12/24 10:34:54;;;;;;;20.20;15.47;;;8.00;93.90;;;6.56;94.18;96962.66;5050302;28;20461;-75
2021/12/24 10:37:23;;;;;;;19.23;14.57;;;8.00;94.30;;;6.57;95.03;96966.16;5044186;28;20466;-72
2021/12/24 10:39:54;;;;;;;19.33;14.67;;;7.90;95.40;;;6.45;95.91;96942.72;5041787;28;20545;-75
2021/12/24 10:42:27;;;;;;;19.63;16.03;;;7.80;96.80;;;6.44;96.44;96951.78;5048710;28;20512;-73
2021/12/24 10:44:57;;;;;;;17.10;15.03;;;7.80;97.70;;;6.52;96.74;96948.84;5049349;28;20466;-74
2021/12/24 10:47:29;;;;;;;20.80;15.40;;;7.80;98.10;;;6.55;97.11;96952.13;5047793;28;20450;-74
2021/12/24 10:50:13;;;;;;;21.60;14.63;;;7.80;99.10;;;6.50;96.87;96950.09;5048985;28;20476;-74
2021/12/24 10:55:37;;;;;;;20.00;16.30;;;7.90;98.90;;;6.62;96.96;96936.84;5045924;28;20454;-71
2021/12/24 10:58:14;;;;;;;24.43;16.83;;;7.90;99.60;;;6.67;97.36;96934.31;5062521;28;20450;-73
2021/12/24 11:00:46;;;;;;;19.80;16.17;;;7.90;99.70;;;6.75;96.52;96935.91;5029051;28;20478;-74
2021/12/24 11:03:20;;;;;;;23.03;16.50;;;8.00;98.30;;;6.91;95.91;96927.31;5064960;28;20472;-76
2021/12/24 11:05:51;;;;;;;21.60;15.60;;;8.10;97.70;;;6.74;96.04;96935.06;5056056;28;20488;-73
2021/12/24 11:08:20;;;;;;;26.00;16.47;;;8.10;96.50;;;6.50;95.50;96875.78;5046843;28;20458;-77
2021/12/24 11:10:50;;;;;;;19.80;16.43;;;8.10;96.10;;;6.86;95.57;96919.09;5027048;28;20509;-74
2021/12/24 11:13:21;;;;;;;20.07;16.57;;;8.20;96.70;;;6.61;96.32;96898.41;5031279;28;21218;-76
2021/12/24 11:15:50;;;;;;;18.17;15.30;;;8.00;97.40;;;6.74;96.05;96918.16;5047774;28;20476;-73
2021/12/24 11:18:22;;;;;;;20.63;14.93;;;8.10;97.50;;;6.52;96.22;96888.97;5047778;28;20493;-76
2021/12/24 11:20:54;;;;;;;19.27;15.20;;;8.00;98.30;;;6.41;96.47;96870.91;5045807;28;20979;-75
2021/12/24 11:23:23;;;;;;;22.77;16.30;;;8.00;97.90;;;6.52;95.96;96880.91;5048036;28;20481;-75
2021/12/24 11:25:54;;;;;;;19.80;15.93;;;8.00;97.70;;;6.85;96.30;96919.31;5029509;28;20457;-72
2021/12/24 11:28:23;;;;;;;18.83;13.77;;;8.10;98.50;;;6.80;96.32;96917.28;5062231;28;20544;-73
2021/12/24 11:30:53;;;;;;;21.20;16.13;;;8.10;97.70;;;6.75;96.37;96907.22;5046270;28;20491;-76
2021/12/24 11:33:25;;;;;;;19.60;14.40;;;8.10;97.40;;;6.71;96.32;96924.78;5048653;28;20458;-72
2021/12/24 11:35:53;;;;;;;19.07;15.30;;;8.10;96.80;;;6.57;96.97;96921.38;5060077;28;20635;-72
2021/12/24 11:38:25;;;;;;;19.30;14.70;;;7.90;98.10;;;6.52;97.75;96916.66;5053763;28;21345;-73
2021/12/24 11:40:55;;;;;;;23.37;15.70;;;7.90;99.90;;;6.62;97.39;96920.72;5047603;28;20484;-73
2021/12/24 11:43:26;;;;;;;17.37;14.70;;;7.90;99.20;;;6.63;97.21;96914.31;5062785;28;21007;-71
2021/12/24 11:45:53;;;;;;;17.10;14.20;;;7.90;99.20;;;6.78;96.46;96914.81;5045217;28;20502;-70
2021/12/24 11:48:22;;;;;;;17.53;14.57;;;8.00;98.50;;;6.87;96.28;96920.75;5047760;28;20991;-72
2021/12/24 11:50:50;;;;;;;20.83;15.43;;;8.10;98.00;;;6.72;96.28;96920.25;5046374;28;20472;-74
2021/12/24 11:53:18;;;;;;;17.33;13.90;;;8.10;96.60;;;6.83;96.16;96930.28;5062420;28;20833;-75
2021/12/24 11:55:49;;;;;;;14.20;12.40;;;8.10;97.10;;;6.60;97.08;96928.19;5043090;28;21042;-73
2021/12/24 11:58:19;;;;;;;22.80;14.33;;;8.00;97.70;;;6.74;97.55;96913.59;5048845;28;20925;-71
2021/12/24 12:00:49;;;;;;;17.57;13.63;;;8.00;99.20;;;6.86;96.53;96916.41;5044256;28;20864;-74